sensor_id;sensor_type;location;lat;lon;timestamp;pressure;altitude;pressure_sealevel;temperature;humidity
3832;BME280;12460;42.662;23.288;2023-05-24T00:00:01;94358.44;;;15.82;57.48
3832;BME280;12460;42.662;23.288;2023-05-24T00:15:07;94341.75;;;15.65;58.02
3832;BME280;12460;42.662;23.288;2023-05-24T00:30:13;94337.97;;;15.51;58.35
3832;BME280;12460;42.662;23.288;2023-05-24T00:45:18;94342.31;;;15.30;58.98
3832;BME280;12460;42.662;23.288;2023-05-24T01:00:24;94336.03;;;15.11;59.89
3832;BME280;12460;42.662;23.288;2023-05-24T01:16:11;94341.50;;;14.97;60.19
3832;BME280;12460;42.662;23.288;2023-05-24T01:31:21;94340.06;;;14.87;59.72
3832;BME280;12460;42.662;23.288;2023-05-24T01:46:34;94350.53;;;14.84;60.14
3832;BME280;12460;42.662;23.288;2023-05-24T02:01:42;94341.50;;;14.66;60.69
3832;BME280;12460;42.662;23.288;2023-05-24T02:16:47;94334.56;;;14.58;60.89
3832;BME280;12460;42.662;23.288;2023-05-24T02:31:54;94326.91;;;14.39;61.16
3832;BME280;12460;42.662;23.288;2023-05-24T02:47:00;94336.00;;;14.38;60.58
3832;BME280;12460;42.662;23.288;2023-05-24T03:02:04;94335.53;;;14.41;60.60
3832;BME280;12460;42.662;23.288;2023-05-24T03:17:08;94328.28;;;14.59;60.02
3832;BME280;12460;42.662;23.288;2023-05-24T03:32:12;94359.81;;;18.03;53.00
3832;BME280;12460;42.662;23.288;2023-05-24T03:47:16;94351.94;;;20.64;46.91
3832;BME280;12460;42.662;23.288;2023-05-24T04:02:23;94356.72;;;22.74;42.07
3832;BME280;12460;42.662;23.288;2023-05-24T04:17:29;94355.63;;;23.40;41.26
3832;BME280;12460;42.662;23.288;2023-05-24T04:32:38;94366.16;;;22.59;42.29
3832;BME280;12460;42.662;23.288;2023-05-24T04:47:45;94387.63;;;22.41;41.65
3832;BME280;12460;42.662;23.288;2023-05-24T05:02:49;94385.84;;;23.83;39.62
3832;BME280;12460;42.662;23.288;2023-05-24T05:17:54;94389.38;;;25.11;37.02
3832;BME280;12460;42.662;23.288;2023-05-24T05:32:58;94389.88;;;24.58;37.94
3832;BME280;12460;42.662;23.288;2023-05-24T05:48:03;94403.44;;;26.53;34.79
3832;BME280;12460;42.662;23.288;2023-05-24T06:03:08;94406.19;;;26.47;35.29
3832;BME280;12460;42.662;23.288;2023-05-24T06:18:16;94413.00;;;28.22;32.79
3832;BME280;12460;42.662;23.288;2023-05-24T06:33:21;94405.69;;;29.03;30.80
3832;BME280;12460;42.662;23.288;2023-05-24T06:48:26;94401.38;;;30.08;29.53
3832;BME280;12460;42.662;23.288;2023-05-24T07:03:31;94392.97;;;31.20;27.78
3832;BME280;12460;42.662;23.288;2023-05-24T07:18:36;94389.75;;;31.82;26.83
3832;BME280;12460;42.662;23.288;2023-05-24T07:33:40;94401.88;;;30.54;28.16
3832;BME280;12460;42.662;23.288;2023-05-24T07:48:45;94403.13;;;32.60;26.54
3832;BME280;12460;42.662;23.288;2023-05-24T08:03:50;94397.34;;;33.08;25.04
3832;BME280;12460;42.662;23.288;2023-05-24T08:18:54;94384.19;;;33.29;23.18
3832;BME280;12460;42.662;23.288;2023-05-24T08:34:00;94391.50;;;33.18;22.76
3832;BME280;12460;42.662;23.288;2023-05-24T08:49:04;94384.41;;;34.71;22.14
3832;BME280;12460;42.662;23.288;2023-05-24T09:04:10;94373.25;;;32.55;22.43
3832;BME280;12460;42.662;23.288;2023-05-24T09:19:18;94375.88;;;31.70;21.41
3832;BME280;12460;42.662;23.288;2023-05-24T09:34:22;94359.34;;;32.27;21.52
3832;BME280;12460;42.662;23.288;2023-05-24T09:49:27;94369.13;;;31.40;22.09
3832;BME280;12460;42.662;23.288;2023-05-24T10:04:32;94361.75;;;31.23;22.15
3832;BME280;12460;42.662;23.288;2023-05-24T10:19:40;94352.00;;;31.96;21.12
3832;BME280;12460;42.662;23.288;2023-05-24T10:34:45;94340.22;;;31.66;21.03
3832;BME280;12460;42.662;23.288;2023-05-24T10:49:55;94318.31;;;31.43;20.03
3832;BME280;12460;42.662;23.288;2023-05-24T11:05:04;94298.06;;;30.53;22.09
3832;BME280;12460;42.662;23.288;2023-05-24T11:20:09;94283.16;;;30.12;22.96
3832;BME280;12460;42.662;23.288;2023-05-24T11:35:14;94284.69;;;30.21;22.99
3832;BME280;12460;42.662;23.288;2023-05-24T11:50:23;94274.13;;;29.76;23.37
3832;BME280;12460;42.662;23.288;2023-05-24T12:05:29;94269.09;;;29.81;22.71
3832;BME280;12460;42.662;23.288;2023-05-24T12:20:37;94257.09;;;30.18;23.09
3832;BME280;12460;42.662;23.288;2023-05-24T12:35:42;94232.69;;;30.46;22.84
3832;BME280;12460;42.662;23.288;2023-05-24T12:50:46;94231.72;;;31.31;21.38
3832;BME280;12460;42.662;23.288;2023-05-24T13:05:51;94227.97;;;29.36;23.86
3832;BME280;12460;42.662;23.288;2023-05-24T13:20:56;94201.53;;;29.08;24.30
3832;BME280;12460;42.662;23.288;2023-05-24T13:36:03;94201.63;;;28.12;24.97
3832;BME280;12460;42.662;23.288;2023-05-24T13:51:08;94203.31;;;27.42;26.63
3832;BME280;12460;42.662;23.288;2023-05-24T14:06:12;94232.25;;;26.74;33.53
3832;BME280;12460;42.662;23.288;2023-05-24T14:21:18;94245.34;;;25.88;38.05
3832;BME280;12460;42.662;23.288;2023-05-24T14:36:25;94251.44;;;25.73;38.73
3832;BME280;12460;42.662;23.288;2023-05-24T14:51:30;94246.56;;;25.26;38.00
3832;BME280;12460;42.662;23.288;2023-05-24T15:06:38;94250.88;;;25.50;38.17
3832;BME280;12460;42.662;23.288;2023-05-24T15:21:43;94228.66;;;25.29;35.09
3832;BME280;12460;42.662;23.288;2023-05-24T15:36:48;94240.03;;;24.74;34.49
3832;BME280;12460;42.662;23.288;2023-05-24T15:51:53;94227.81;;;25.50;32.49
3832;BME280;12460;42.662;23.288;2023-05-24T16:07:02;94228.06;;;25.60;33.47
3832;BME280;12460;42.662;23.288;2023-05-24T16:22:09;94246.75;;;25.57;32.65
3832;BME280;12460;42.662;23.288;2023-05-24T16:37:14;94274.50;;;25.21;33.98
3832;BME280;12460;42.662;23.288;2023-05-24T16:52:21;94269.59;;;25.00;35.16
3832;BME280;12460;42.662;23.288;2023-05-24T17:07:26;94267.22;;;24.45;35.70
3832;BME280;12460;42.662;23.288;2023-05-24T17:22:30;94279.19;;;24.38;35.81
3832;BME280;12460;42.662;23.288;2023-05-24T17:37:35;94288.09;;;23.81;37.63
3832;BME280;12460;42.662;23.288;2023-05-24T17:52:40;94309.66;;;23.60;39.77
3832;BME280;12460;42.662;23.288;2023-05-24T18:07:45;94325.50;;;23.22;40.83
3832;BME280;12460;42.662;23.288;2023-05-24T18:22:50;94347.50;;;22.96;40.66
3832;BME280;12460;42.662;23.288;2023-05-24T18:37:55;94376.66;;;22.90;40.74
3832;BME280;12460;42.662;23.288;2023-05-24T18:53:00;94393.44;;;22.78;42.41
3832;BME280;12460;42.662;23.288;2023-05-24T19:08:05;94415.53;;;22.58;44.61
3832;BME280;12460;42.662;23.288;2023-05-24T19:23:11;94428.72;;;22.47;45.84
3832;BME280;12460;42.662;23.288;2023-05-24T19:38:17;94438.31;;;22.36;46.86
3832;BME280;12460;42.662;23.288;2023-05-24T19:53:22;94431.63;;;22.14;46.62
3832;BME280;12460;42.662;23.288;2023-05-24T20:08:28;94437.94;;;21.62;45.83
3832;BME280;12460;42.662;23.288;2023-05-24T20:23:34;94435.53;;;21.56;46.27
3832;BME280;12460;42.662;23.288;2023-05-24T20:38:39;94411.94;;;21.24;47.38
3832;BME280;12460;42.662;23.288;2023-05-24T20:53:45;94460.22;;;20.87;48.19
3832;BME280;12460;42.662;23.288;2023-05-24T21:08:50;94463.28;;;19.76;51.25
3832;BME280;12460;42.662;23.288;2023-05-24T21:23:55;94480.94;;;19.73;51.30
3832;BME280;12460;42.662;23.288;2023-05-24T21:39:01;94471.97;;;19.65;51.66
3832;BME280;12460;42.662;23.288;2023-05-24T21:54:10;94468.44;;;19.80;52.12
3832;BME280;12460;42.662;23.288;2023-05-24T22:09:14;94457.69;;;19.65;52.50
3832;BME280;12460;42.662;23.288;2023-05-24T22:24:19;94476.41;;;19.54;53.17
3832;BME280;12460;42.662;23.288;2023-05-24T22:39:24;94497.00;;;19.52;53.87
3832;BME280;12460;42.662;23.288;2023-05-24T22:54:29;94507.03;;;19.40;54.76
3832;BME280;12460;42.662;23.288;2023-05-24T23:09:34;94482.13;;;19.15;55.27
3832;BME280;12460;42.662;23.288;2023-05-24T23:24:40;94468.06;;;19.06;55.49
3832;BME280;12460;42.662;23.288;2023-05-24T23:39:47;94461.09;;;18.95;55.83
3832;BME280;12460;42.662;23.288;2023-05-24T23:54:52;94472.25;;;18.77;56.14
